sensor_id;sensor_type;location;lat;lon;timestamp;P1;durP1;ratioP1;P2;durP2;ratioP2
12814;SDS011;6472;52.328;13.070;2024-02-15T00:00:22;8.00;;;5.00;;
12814;SDS011;6472;52.328;13.070;2024-02-15T00:02:53;6.63;;;5.40;;
12814;SDS011;6472;52.328;13.070;2024-02-15T00:05:22;8.07;;;6.47;;
12814;SDS011;6472;52.328;13.070;2024-02-15T00:07:51;5.70;;;5.13;;
12814;SDS011;6472;52.328;13.070;2024-02-15T00:10:19;7.13;;;4.93;;
12814;SDS011;6472;52.328;13.070;2024-02-15T00:12:49;9.33;;;5.37;;
12814;SDS011;6472;52.328;13.070;2024-02-15T00:15:19;5.83;;;5.23;;
12814;SDS011;6472;52.328;13.070;2024-02-15T00:17:47;10.47;;;5.80;;
12814;SDS011;6472;52.328;13.070;2024-02-15T00:20:16;10.07;;;6.30;;
12814;SDS011;6472;52.328;13.070;2024-02-15T00:22:44;8.33;;;6.43;;
12814;SDS011;6472;52.328;13.070;2024-02-15T00:25:14;8.17;;;7.27;;
12814;SDS011;6472;52.328;13.070;2024-02-15T00:27:43;9.40;;;7.17;;
12814;SDS011;6472;52.328;13.070;2024-02-15T00:30:11;10.13;;;6.50;;
12814;SDS011;6472;52.328;13.070;2024-02-15T00:39:45;10.93;;;8.10;;
12814;SDS011;6472;52.328;13.070;2024-02-15T00:43:03;11.23;;;8.40;;
12814;SDS011;6472;52.328;13.070;2024-02-15T00:45:31;13.17;;;9.03;;
12814;SDS011;6472;52.328;13.070;2024-02-15T00:47:59;11.37;;;9.33;;
12814;SDS011;6472;52.328;13.070;2024-02-15T00:50:28;14.20;;;10.40;;
12814;SDS011;6472;52.328;13.070;2024-02-15T00:52:56;13.47;;;9.20;;
12814;SDS011;6472;52.328;13.070;2024-02-15T00:55:26;12.43;;;9.23;;
12814;SDS011;6472;52.328;13.070;2024-02-15T00:57:54;11.63;;;9.07;;
12814;SDS011;6472;52.328;13.070;2024-02-15T01:00:22;10.27;;;8.40;;
12814;SDS011;6472;52.328;13.070;2024-02-15T01:02:50;16.43;;;10.07;;
12814;SDS011;6472;52.328;13.070;2024-02-15T01:05:19;15.57;;;8.87;;
12814;SDS011;6472;52.328;13.070;2024-02-15T01:07:48;13.13;;;9.73;;
12814;SDS011;6472;52.328;13.070;2024-02-15T01:10:16;15.30;;;10.00;;
12814;SDS011;6472;52.328;13.070;2024-02-15T01:12:46;13.60;;;9.80;;
12814;SDS011;6472;52.328;13.070;2024-02-15T01:15:15;13.37;;;9.70;;
12814;SDS011;6472;52.328;13.070;2024-02-15T01:17:44;16.43;;;10.67;;
12814;SDS011;6472;52.328;13.070;2024-02-15T01:20:13;13.23;;;9.57;;
12814;SDS011;6472;52.328;13.070;2024-02-15T01:22:41;16.17;;;10.00;;
12814;SDS011;6472;52.328;13.070;2024-02-15T01:25:10;13.50;;;10.03;;
12814;SDS011;6472;52.328;13.070;2024-02-15T01:27:38;15.63;;;10.83;;
12814;SDS011;6472;52.328;13.070;2024-02-15T01:30:08;16.53;;;10.27;;
12814;SDS011;6472;52.328;13.070;2024-02-15T01:32:37;13.93;;;9.63;;
12814;SDS011;6472;52.328;13.070;2024-02-15T01:35:08;14.87;;;10.30;;
12814;SDS011;6472;52.328;13.070;2024-02-15T01:37:37;16.10;;;10.33;;
12814;SDS011;6472;52.328;13.070;2024-02-15T01:40:05;17.20;;;9.87;;
12814;SDS011;6472;52.328;13.070;2024-02-15T01:42:33;15.40;;;10.63;;
12814;SDS011;6472;52.328;13.070;2024-02-15T01:45:02;16.73;;;9.43;;
12814;SDS011;6472;52.328;13.070;2024-02-15T01:47:32;15.07;;;9.13;;
12814;SDS011;6472;52.328;13.070;2024-02-15T01:50:01;14.53;;;9.60;;
12814;SDS011;6472;52.328;13.070;2024-02-15T01:52:29;15.10;;;9.50;;
12814;SDS011;6472;52.328;13.070;2024-02-15T01:54:58;12.07;;;9.43;;
12814;SDS011;6472;52.328;13.070;2024-02-15T01:57:34;15.23;;;9.30;;
12814;SDS011;6472;52.328;13.070;2024-02-15T02:00:04;11.83;;;8.20;;
12814;SDS011;6472;52.328;13.070;2024-02-15T02:02:36;14.27;;;8.93;;
12814;SDS011;6472;52.328;13.070;2024-02-15T02:05:07;11.13;;;8.43;;
12814;SDS011;6472;52.328;13.070;2024-02-15T02:07:35;10.23;;;7.93;;
12814;SDS011;6472;52.328;13.070;2024-02-15T02:10:04;11.63;;;8.83;;
12814;SDS011;6472;52.328;13.070;2024-02-15T02:12:35;11.47;;;8.43;;
12814;SDS011;6472;52.328;13.070;2024-02-15T02:15:03;13.37;;;9.00;;
12814;SDS011;6472;52.328;13.070;2024-02-15T02:17:32;13.40;;;9.47;;
12814;SDS011;6472;52.328;13.070;2024-02-15T02:20:03;14.13;;;9.43;;
12814;SDS011;6472;52.328;13.070;2024-02-15T02:22:35;14.53;;;8.53;;
12814;SDS011;6472;52.328;13.070;2024-02-15T02:25:06;11.50;;;8.00;;
12814;SDS011;6472;52.328;13.070;2024-02-15T02:27:35;12.90;;;9.57;;
12814;SDS011;6472;52.328;13.070;2024-02-15T02:30:04;12.60;;;9.13;;
12814;SDS011;6472;52.328;13.070;2024-02-15T02:32:36;11.27;;;8.07;;
12814;SDS011;6472;52.328;13.070;2024-02-15T02:35:05;12.73;;;9.63;;
12814;SDS011;6472;52.328;13.070;2024-02-15T02:37:33;13.87;;;9.40;;
12814;SDS011;6472;52.328;13.070;2024-02-15T02:40:03;13.17;;;8.80;;
12814;SDS011;6472;52.328;13.070;2024-02-15T02:42:35;13.73;;;9.37;;
12814;SDS011;6472;52.328;13.070;2024-02-15T02:45:04;12.53;;;8.83;;
12814;SDS011;6472;52.328;13.070;2024-02-15T02:47:33;12.67;;;9.43;;
12814;SDS011;6472;52.328;13.070;2024-02-15T02:50:01;11.37;;;8.40;;
12814;SDS011;6472;52.328;13.070;2024-02-15T02:52:29;13.23;;;9.93;;
12814;SDS011;6472;52.328;13.070;2024-02-15T02:54:57;13.93;;;9.30;;
12814;SDS011;6472;52.328;13.070;2024-02-15T02:57:27;14.33;;;9.23;;
12814;SDS011;6472;52.328;13.070;2024-02-15T02:59:55;12.93;;;8.70;;
12814;SDS011;6472;52.328;13.070;2024-02-15T03:02:23;15.00;;;9.93;;
12814;SDS011;6472;52.328;13.070;2024-02-15T03:04:52;13.77;;;8.87;;
12814;SDS011;6472;52.328;13.070;2024-02-15T03:07:20;11.73;;;8.60;;
12814;SDS011;6472;52.328;13.070;2024-02-15T03:09:50;11.20;;;8.07;;
12814;SDS011;6472;52.328;13.070;2024-02-15T03:12:18;14.07;;;8.83;;
12814;SDS011;6472;52.328;13.070;2024-02-15T03:14:47;13.33;;;8.73;;
12814;SDS011;6472;52.328;13.070;2024-02-15T03:17:15;10.47;;;7.73;;
12814;SDS011;6472;52.328;13.070;2024-02-15T03:19:43;11.43;;;7.83;;
12814;SDS011;6472;52.328;13.070;2024-02-15T03:22:11;13.33;;;9.10;;
12814;SDS011;6472;52.328;13.070;2024-02-15T03:24:40;14.13;;;8.23;;
12814;SDS011;6472;52.328;13.070;2024-02-15T03:27:09;9.97;;;7.37;;
12814;SDS011;6472;52.328;13.070;2024-02-15T03:29:38;10.67;;;8.07;;
12814;SDS011;6472;52.328;13.070;2024-02-15T03:32:08;11.80;;;7.57;;
12814;SDS011;6472;52.328;13.070;2024-02-15T03:34:37;10.73;;;8.10;;
12814;SDS011;6472;52.328;13.070;2024-02-15T03:37:06;10.83;;;8.23;;
12814;SDS011;6472;52.328;13.070;2024-02-15T03:39:35;11.10;;;7.37;;
12814;SDS011;6472;52.328;13.070;2024-02-15T03:42:04;9.97;;;7.57;;
12814;SDS011;6472;52.328;13.070;2024-02-15T03:44:32;10.93;;;7.30;;
12814;SDS011;6472;52.328;13.070;2024-02-15T03:47:00;11.53;;;7.93;;
12814;SDS011;6472;52.328;13.070;2024-02-15T03:49:31;13.60;;;8.50;;
12814;SDS011;6472;52.328;13.070;2024-02-15T03:51:59;11.20;;;7.80;;
12814;SDS011;6472;52.328;13.070;2024-02-15T03:54:28;10.00;;;7.20;;
12814;SDS011;6472;52.328;13.070;2024-02-15T03:56:56;12.73;;;7.87;;
12814;SDS011;6472;52.328;13.070;2024-02-15T03:59:24;12.13;;;7.63;;
12814;SDS011;6472;52.328;13.070;2024-02-15T04:01:53;14.87;;;7.90;;
12814;SDS011;6472;52.328;13.070;2024-02-15T04:04:22;15.97;;;9.17;;
12814;SDS011;6472;52.328;13.070;2024-02-15T04:06:52;14.30;;;8.53;;
12814;SDS011;6472;52.328;13.070;2024-02-15T04:09:20;11.23;;;8.00;;
12814;SDS011;6472;52.328;13.070;2024-02-15T04:11:48;11.37;;;8.03;;
12814;SDS011;6472;52.328;13.070;2024-02-15T04:14:20;13.60;;;7.80;;
12814;SDS011;6472;52.328;13.070;2024-02-15T04:16:48;10.50;;;7.23;;
12814;SDS011;6472;52.328;13.070;2024-02-15T04:19:16;12.43;;;7.73;;
12814;SDS011;6472;52.328;13.070;2024-02-15T04:21:46;10.33;;;8.27;;
12814;SDS011;6472;52.328;13.070;2024-02-15T04:24:15;13.13;;;8.50;;
12814;SDS011;6472;52.328;13.070;2024-02-15T04:26:44;11.10;;;7.83;;
12814;SDS011;6472;52.328;13.070;2024-02-15T04:29:14;9.53;;;7.00;;
12814;SDS011;6472;52.328;13.070;2024-02-15T04:31:44;11.23;;;7.67;;
12814;SDS011;6472;52.328;13.070;2024-02-15T04:34:15;12.33;;;8.13;;
12814;SDS011;6472;52.328;13.070;2024-02-15T04:36:45;12.43;;;7.70;;
12814;SDS011;6472;52.328;13.070;2024-02-15T04:39:18;13.47;;;8.70;;
12814;SDS011;6472;52.328;13.070;2024-02-15T04:41:50;14.50;;;9.03;;
12814;SDS011;6472;52.328;13.070;2024-02-15T04:44:18;16.17;;;9.10;;
12814;SDS011;6472;52.328;13.070;2024-02-15T04:46:48;11.83;;;7.87;;
12814;SDS011;6472;52.328;13.070;2024-02-15T04:49:16;15.53;;;8.57;;
12814;SDS011;6472;52.328;13.070;2024-02-15T04:51:45;15.93;;;9.37;;
12814;SDS011;6472;52.328;13.070;2024-02-15T04:54:14;12.20;;;7.70;;
12814;SDS011;6472;52.328;13.070;2024-02-15T04:56:45;14.27;;;8.60;;
12814;SDS011;6472;52.328;13.070;2024-02-15T04:59:13;13.33;;;8.07;;
12814;SDS011;6472;52.328;13.070;2024-02-15T05:01:42;16.50;;;9.30;;
12814;SDS011;6472;52.328;13.070;2024-02-15T05:04:11;13.47;;;8.40;;
12814;SDS011;6472;52.328;13.070;2024-02-15T05:06:40;10.47;;;7.63;;
12814;SDS011;6472;52.328;13.070;2024-02-15T05:09:08;13.33;;;8.07;;
12814;SDS011;6472;52.328;13.070;2024-02-15T05:11:37;12.07;;;7.93;;
12814;SDS011;6472;52.328;13.070;2024-02-15T05:14:09;13.63;;;7.80;;
12814;SDS011;6472;52.328;13.070;2024-02-15T05:16:37;11.67;;;8.17;;
12814;SDS011;6472;52.328;13.070;2024-02-15T05:19:09;13.13;;;8.23;;
12814;SDS011;6472;52.328;13.070;2024-02-15T05:21:39;13.37;;;8.07;;
12814;SDS011;6472;52.328;13.070;2024-02-15T05:24:11;15.57;;;8.40;;
12814;SDS011;6472;52.328;13.070;2024-02-15T05:26:41;12.33;;;8.67;;
12814;SDS011;6472;52.328;13.070;2024-02-15T05:29:11;12.13;;;8.10;;
12814;SDS011;6472;52.328;13.070;2024-02-15T05:31:39;14.37;;;8.70;;
12814;SDS011;6472;52.328;13.070;2024-02-15T05:34:08;14.80;;;8.23;;
12814;SDS011;6472;52.328;13.070;2024-02-15T05:36:39;11.33;;;7.80;;
12814;SDS011;6472;52.328;13.070;2024-02-15T05:39:07;11.37;;;7.47;;
12814;SDS011;6472;52.328;13.070;2024-02-15T05:41:38;11.60;;;6.97;;
12814;SDS011;6472;52.328;13.070;2024-02-15T05:44:06;10.30;;;7.07;;
12814;SDS011;6472;52.328;13.070;2024-02-15T05:46:37;10.27;;;6.83;;
12814;SDS011;6472;52.328;13.070;2024-02-15T05:49:06;10.93;;;7.00;;
12814;SDS011;6472;52.328;13.070;2024-02-15T05:51:39;11.93;;;7.10;;
12814;SDS011;6472;52.328;13.070;2024-02-15T05:54:10;10.27;;;7.10;;
12814;SDS011;6472;52.328;13.070;2024-02-15T05:56:39;11.93;;;8.13;;
12814;SDS011;6472;52.328;13.070;2024-02-15T05:59:09;11.13;;;7.60;;
12814;SDS011;6472;52.328;13.070;2024-02-15T06:01:39;12.73;;;7.60;;
12814;SDS011;6472;52.328;13.070;2024-02-15T06:04:08;11.47;;;7.40;;
12814;SDS011;6472;52.328;13.070;2024-02-15T06:06:36;11.40;;;7.90;;
12814;SDS011;6472;52.328;13.070;2024-02-15T06:09:04;12.07;;;7.63;;
12814;SDS011;6472;52.328;13.070;2024-02-15T06:11:32;10.87;;;7.67;;
12814;SDS011;6472;52.328;13.070;2024-02-15T06:14:02;9.73;;;6.90;;
12814;SDS011;6472;52.328;13.070;2024-02-15T06:16:30;13.37;;;8.37;;
12814;SDS011;6472;52.328;13.070;2024-02-15T06:18:59;12.87;;;7.50;;
12814;SDS011;6472;52.328;13.070;2024-02-15T06:21:28;12.93;;;8.20;;
12814;SDS011;6472;52.328;13.070;2024-02-15T06:23:56;11.43;;;6.97;;
12814;SDS011;6472;52.328;13.070;2024-02-15T06:26:24;11.63;;;6.97;;
12814;SDS011;6472;52.328;13.070;2024-02-15T06:28:53;13.73;;;8.83;;
12814;SDS011;6472;52.328;13.070;2024-02-15T06:31:38;12.37;;;7.60;;
12814;SDS011;6472;52.328;13.070;2024-02-15T06:34:25;12.30;;;6.97;;
12814;SDS011;6472;52.328;13.070;2024-02-15T06:37:10;12.17;;;7.40;;
12814;SDS011;6472;52.328;13.070;2024-02-15T06:40:16;11.27;;;7.20;;
12814;SDS011;6472;52.328;13.070;2024-02-15T06:42:45;12.33;;;8.20;;
12814;SDS011;6472;52.328;13.070;2024-02-15T06:45:13;11.60;;;7.43;;
12814;SDS011;6472;52.328;13.070;2024-02-15T06:47:41;12.20;;;7.73;;
12814;SDS011;6472;52.328;13.070;2024-02-15T06:50:11;16.33;;;8.87;;
12814;SDS011;6472;52.328;13.070;2024-02-15T06:52:40;11.67;;;7.97;;
12814;SDS011;6472;52.328;13.070;2024-02-15T06:55:08;8.97;;;6.53;;
12814;SDS011;6472;52.328;13.070;2024-02-15T06:57:38;17.97;;;10.07;;
12814;SDS011;6472;52.328;13.070;2024-02-15T07:00:09;13.53;;;8.27;;
12814;SDS011;6472;52.328;13.070;2024-02-15T07:02:42;14.50;;;9.20;;
12814;SDS011;6472;52.328;13.070;2024-02-15T07:05:12;13.43;;;8.20;;
12814;SDS011;6472;52.328;13.070;2024-02-15T07:07:43;11.53;;;7.77;;
12814;SDS011;6472;52.328;13.070;2024-02-15T07:10:11;12.10;;;7.67;;
12814;SDS011;6472;52.328;13.070;2024-02-15T07:12:42;11.40;;;7.63;;
12814;SDS011;6472;52.328;13.070;2024-02-15T07:15:11;16.73;;;8.13;;
12814;SDS011;6472;52.328;13.070;2024-02-15T07:17:39;14.50;;;7.93;;
12814;SDS011;6472;52.328;13.070;2024-02-15T07:20:10;14.23;;;8.70;;
12814;SDS011;6472;52.328;13.070;2024-02-15T07:22:42;12.10;;;7.20;;
12814;SDS011;6472;52.328;13.070;2024-02-15T07:25:11;10.77;;;7.17;;
12814;SDS011;6472;52.328;13.070;2024-02-15T07:27:40;13.90;;;7.80;;
12814;SDS011;6472;52.328;13.070;2024-02-15T07:30:09;12.70;;;8.10;;
12814;SDS011;6472;52.328;13.070;2024-02-15T07:32:39;11.40;;;7.50;;
12814;SDS011;6472;52.328;13.070;2024-02-15T07:35:07;13.13;;;7.97;;
12814;SDS011;6472;52.328;13.070;2024-02-15T07:37:36;12.23;;;7.07;;
12814;SDS011;6472;52.328;13.070;2024-02-15T07:40:07;12.67;;;7.90;;
12814;SDS011;6472;52.328;13.070;2024-02-15T07:42:36;12.93;;;9.20;;
12814;SDS011;6472;52.328;13.070;2024-02-15T07:45:04;11.70;;;8.13;;
12814;SDS011;6472;52.328;13.070;2024-02-15T07:47:33;9.40;;;6.67;;
12814;SDS011;6472;52.328;13.070;2024-02-15T07:50:02;11.37;;;7.30;;
12814;SDS011;6472;52.328;13.070;2024-02-15T07:52:32;13.67;;;8.77;;
12814;SDS011;6472;52.328;13.070;2024-02-15T07:55:00;14.13;;;7.33;;
12814;SDS011;6472;52.328;13.070;2024-02-15T07:57:36;10.53;;;7.67;;
12814;SDS011;6472;52.328;13.070;2024-02-15T08:00:05;11.37;;;7.30;;
12814;SDS011;6472;52.328;13.070;2024-02-15T08:02:37;14.47;;;7.77;;
12814;SDS011;6472;52.328;13.070;2024-02-15T08:05:09;12.93;;;7.83;;
12814;SDS011;6472;52.328;13.070;2024-02-15T08:07:37;11.37;;;7.37;;
12814;SDS011;6472;52.328;13.070;2024-02-15T08:10:08;11.63;;;7.60;;
12814;SDS011;6472;52.328;13.070;2024-02-15T08:12:41;11.00;;;7.40;;
12814;SDS011;6472;52.328;13.070;2024-02-15T08:15:10;11.23;;;7.57;;
12814;SDS011;6472;52.328;13.070;2024-02-15T08:17:40;12.07;;;7.27;;
12814;SDS011;6472;52.328;13.070;2024-02-15T08:20:10;11.23;;;7.07;;
12814;SDS011;6472;52.328;13.070;2024-02-15T08:22:38;11.03;;;7.67;;
12814;SDS011;6472;52.328;13.070;2024-02-15T08:25:08;9.30;;;6.60;;
12814;SDS011;6472;52.328;13.070;2024-02-15T08:27:37;13.33;;;7.77;;
12814;SDS011;6472;52.328;13.070;2024-02-15T08:30:11;15.23;;;7.93;;
12814;SDS011;6472;52.328;13.070;2024-02-15T08:32:41;13.37;;;7.20;;
12814;SDS011;6472;52.328;13.070;2024-02-15T08:35:12;11.40;;;7.43;;
12814;SDS011;6472;52.328;13.070;2024-02-15T08:37:41;14.47;;;7.70;;
12814;SDS011;6472;52.328;13.070;2024-02-15T08:40:10;13.63;;;8.20;;
12814;SDS011;6472;52.328;13.070;2024-02-15T08:42:41;11.30;;;6.97;;
12814;SDS011;6472;52.328;13.070;2024-02-15T08:45:11;14.17;;;8.73;;
12814;SDS011;6472;52.328;13.070;2024-02-15T08:47:40;10.17;;;6.80;;
12814;SDS011;6472;52.328;13.070;2024-02-15T08:50:10;11.37;;;7.57;;
12814;SDS011;6472;52.328;13.070;2024-02-15T08:52:39;12.33;;;7.37;;
12814;SDS011;6472;52.328;13.070;2024-02-15T08:55:08;13.63;;;7.77;;
12814;SDS011;6472;52.328;13.070;2024-02-15T08:57:37;13.07;;;8.40;;
12814;SDS011;6472;52.328;13.070;2024-02-15T09:00:07;11.00;;;6.23;;
12814;SDS011;6472;52.328;13.070;2024-02-15T09:02:42;12.07;;;7.63;;
12814;SDS011;6472;52.328;13.070;2024-02-15T09:05:10;8.87;;;6.50;;
12814;SDS011;6472;52.328;13.070;2024-02-15T09:07:41;11.80;;;6.30;;
12814;SDS011;6472;52.328;13.070;2024-02-15T09:10:10;11.03;;;7.00;;
12814;SDS011;6472;52.328;13.070;2024-02-15T09:12:38;8.10;;;6.43;;
12814;SDS011;6472;52.328;13.070;2024-02-15T09:15:07;8.47;;;6.10;;
12814;SDS011;6472;52.328;13.070;2024-02-15T09:17:37;8.80;;;6.33;;
12814;SDS011;6472;52.328;13.070;2024-02-15T09:20:08;7.63;;;5.40;;
12814;SDS011;6472;52.328;13.070;2024-02-15T09:22:41;7.93;;;5.57;;
12814;SDS011;6472;52.328;13.070;2024-02-15T09:25:12;9.03;;;6.07;;
12814;SDS011;6472;52.328;13.070;2024-02-15T09:27:41;8.60;;;5.57;;
12814;SDS011;6472;52.328;13.070;2024-02-15T09:30:10;8.43;;;5.10;;
12814;SDS011;6472;52.328;13.070;2024-02-15T09:32:39;7.57;;;5.57;;
12814;SDS011;6472;52.328;13.070;2024-02-15T09:35:09;7.60;;;5.70;;
12814;SDS011;6472;52.328;13.070;2024-02-15T09:37:42;7.50;;;5.13;;
12814;SDS011;6472;52.328;13.070;2024-02-15T09:40:12;9.87;;;5.60;;
12814;SDS011;6472;52.328;13.070;2024-02-15T09:42:42;7.20;;;4.90;;
12814;SDS011;6472;52.328;13.070;2024-02-15T09:45:12;7.27;;;4.83;;
12814;SDS011;6472;52.328;13.070;2024-02-15T09:47:44;7.27;;;5.17;;
12814;SDS011;6472;52.328;13.070;2024-02-15T09:50:15;6.30;;;5.07;;
12814;SDS011;6472;52.328;13.070;2024-02-15T09:52:45;8.20;;;5.37;;
12814;SDS011;6472;52.328;13.070;2024-02-15T09:55:17;6.50;;;4.80;;
12814;SDS011;6472;52.328;13.070;2024-02-15T09:57:46;6.63;;;4.70;;
12814;SDS011;6472;52.328;13.070;2024-02-15T10:00:15;5.37;;;4.07;;
12814;SDS011;6472;52.328;13.070;2024-02-15T10:02:47;5.60;;;4.13;;
12814;SDS011;6472;52.328;13.070;2024-02-15T10:05:20;7.40;;;4.80;;
12814;SDS011;6472;52.328;13.070;2024-02-15T10:07:49;4.40;;;4.00;;
12814;SDS011;6472;52.328;13.070;2024-02-15T10:10:18;5.43;;;3.80;;
12814;SDS011;6472;52.328;13.070;2024-02-15T10:12:47;4.73;;;3.63;;
12814;SDS011;6472;52.328;13.070;2024-02-15T10:15:27;4.97;;;3.83;;
12814;SDS011;6472;52.328;13.070;2024-02-15T10:17:59;6.40;;;4.67;;
12814;SDS011;6472;52.328;13.070;2024-02-15T10:20:30;5.77;;;4.50;;
12814;SDS011;6472;52.328;13.070;2024-02-15T10:23:10;5.37;;;3.97;;
12814;SDS011;6472;52.328;13.070;2024-02-15T10:25:40;6.00;;;4.20;;
12814;SDS011;6472;52.328;13.070;2024-02-15T10:28:09;5.00;;;4.20;;
12814;SDS011;6472;52.328;13.070;2024-02-15T10:30:39;4.73;;;3.43;;
12814;SDS011;6472;52.328;13.070;2024-02-15T10:33:10;5.53;;;4.00;;
12814;SDS011;6472;52.328;13.070;2024-02-15T10:35:48;4.53;;;3.43;;
12814;SDS011;6472;52.328;13.070;2024-02-15T10:38:16;3.70;;;3.40;;
12814;SDS011;6472;52.328;13.070;2024-02-15T10:40:45;5.07;;;3.53;;
12814;SDS011;6472;52.328;13.070;2024-02-15T10:43:14;6.43;;;3.63;;
12814;SDS011;6472;52.328;13.070;2024-02-15T10:45:45;5.37;;;3.43;;
12814;SDS011;6472;52.328;13.070;2024-02-15T10:48:15;4.17;;;3.53;;
12814;SDS011;6472;52.328;13.070;2024-02-15T10:50:44;5.03;;;3.60;;
12814;SDS011;6472;52.328;13.070;2024-02-15T10:53:19;3.83;;;3.17;;
12814;SDS011;6472;52.328;13.070;2024-02-15T10:55:56;4.13;;;3.03;;
12814;SDS011;6472;52.328;13.070;2024-02-15T10:58:32;4.80;;;3.63;;
12814;SDS011;6472;52.328;13.070;2024-02-15T11:01:07;3.03;;;2.70;;
12814;SDS011;6472;52.328;13.070;2024-02-15T11:03:42;3.53;;;3.00;;
12814;SDS011;6472;52.328;13.070;2024-02-15T11:06:18;6.33;;;3.73;;
12814;SDS011;6472;52.328;13.070;2024-02-15T11:08:50;3.77;;;2.27;;
12814;SDS011;6472;52.328;13.070;2024-02-15T11:11:19;6.00;;;2.80;;
12814;SDS011;6472;52.328;13.070;2024-02-15T11:13:49;11.03;;;5.30;;
12814;SDS011;6472;52.328;13.070;2024-02-15T11:19:09;4.87;;;3.17;;
12814;SDS011;6472;52.328;13.070;2024-02-15T11:21:53;4.33;;;2.43;;
12814;SDS011;6472;52.328;13.070;2024-02-15T11:24:28;3.27;;;2.97;;
12814;SDS011;6472;52.328;13.070;2024-02-15T11:26:59;3.00;;;2.70;;
12814;SDS011;6472;52.328;13.070;2024-02-15T11:29:49;3.20;;;2.90;;
12814;SDS011;6472;52.328;13.070;2024-02-15T11:32:38;3.93;;;2.77;;
12814;SDS011;6472;52.328;13.070;2024-02-15T11:35:19;4.33;;;2.60;;
12814;SDS011;6472;52.328;13.070;2024-02-15T11:37:51;2.93;;;2.57;;
12814;SDS011;6472;52.328;13.070;2024-02-15T11:40:24;3.50;;;2.07;;
12814;SDS011;6472;52.328;13.070;2024-02-15T11:42:55;3.20;;;2.37;;
12814;SDS011;6472;52.328;13.070;2024-02-15T11:45:31;2.17;;;1.97;;
12814;SDS011;6472;52.328;13.070;2024-02-15T11:48:10;2.67;;;2.30;;
12814;SDS011;6472;52.328;13.070;2024-02-15T11:50:42;2.37;;;2.13;;
12814;SDS011;6472;52.328;13.070;2024-02-15T11:53:11;2.80;;;2.30;;
12814;SDS011;6472;52.328;13.070;2024-02-15T11:55:40;2.50;;;2.13;;
12814;SDS011;6472;52.328;13.070;2024-02-15T11:58:09;2.30;;;2.10;;
12814;SDS011;6472;52.328;13.070;2024-02-15T12:00:48;2.53;;;2.33;;
12814;SDS011;6472;52.328;13.070;2024-02-15T12:03:36;7.77;;;2.73;;
12814;SDS011;6472;52.328;13.070;2024-02-15T12:06:34;5.40;;;4.43;;
12814;SDS011;6472;52.328;13.070;2024-02-15T12:09:19;8.40;;;4.70;;
12814;SDS011;6472;52.328;13.070;2024-02-15T12:12:05;3.97;;;2.70;;
12814;SDS011;6472;52.328;13.070;2024-02-15T12:14:57;3.40;;;2.50;;
12814;SDS011;6472;52.328;13.070;2024-02-15T12:17:43;2.70;;;2.20;;
12814;SDS011;6472;52.328;13.070;2024-02-15T12:20:29;4.50;;;2.40;;
12814;SDS011;6472;52.328;13.070;2024-02-15T12:22:59;2.40;;;1.87;;
12814;SDS011;6472;52.328;13.070;2024-02-15T12:25:27;2.90;;;2.00;;
12814;SDS011;6472;52.328;13.070;2024-02-15T12:27:59;4.60;;;2.70;;
12814;SDS011;6472;52.328;13.070;2024-02-15T12:30:32;3.07;;;2.50;;
12814;SDS011;6472;52.328;13.070;2024-02-15T12:33:10;2.53;;;2.27;;
12814;SDS011;6472;52.328;13.070;2024-02-15T12:35:46;3.00;;;2.33;;
12814;SDS011;6472;52.328;13.070;2024-02-15T12:38:18;2.80;;;2.57;;
12814;SDS011;6472;52.328;13.070;2024-02-15T12:40:47;2.47;;;2.27;;
12814;SDS011;6472;52.328;13.070;2024-02-15T12:43:16;4.63;;;2.57;;
12814;SDS011;6472;52.328;13.070;2024-02-15T12:45:44;3.00;;;2.70;;
12814;SDS011;6472;52.328;13.070;2024-02-15T12:48:12;3.23;;;2.33;;
12814;SDS011;6472;52.328;13.070;2024-02-15T12:50:42;3.83;;;2.53;;
12814;SDS011;6472;52.328;13.070;2024-02-15T12:53:10;3.87;;;2.60;;
12814;SDS011;6472;52.328;13.070;2024-02-15T12:55:39;2.50;;;2.30;;
12814;SDS011;6472;52.328;13.070;2024-02-15T12:58:12;4.13;;;3.10;;
12814;SDS011;6472;52.328;13.070;2024-02-15T13:00:42;6.07;;;2.77;;
12814;SDS011;6472;52.328;13.070;2024-02-15T13:03:11;3.40;;;2.80;;
12814;SDS011;6472;52.328;13.070;2024-02-15T13:05:42;4.07;;;2.77;;
12814;SDS011;6472;52.328;13.070;2024-02-15T13:08:12;4.57;;;2.60;;
12814;SDS011;6472;52.328;13.070;2024-02-15T13:10:42;3.60;;;3.30;;
12814;SDS011;6472;52.328;13.070;2024-02-15T13:13:11;3.33;;;2.63;;
12814;SDS011;6472;52.328;13.070;2024-02-15T13:15:41;4.33;;;2.83;;
12814;SDS011;6472;52.328;13.070;2024-02-15T13:18:10;4.93;;;3.20;;
12814;SDS011;6472;52.328;13.070;2024-02-15T13:20:40;3.53;;;2.87;;
12814;SDS011;6472;52.328;13.070;2024-02-15T13:23:10;3.73;;;2.40;;
12814;SDS011;6472;52.328;13.070;2024-02-15T13:25:47;3.00;;;2.60;;
12814;SDS011;6472;52.328;13.070;2024-02-15T13:28:18;2.90;;;2.60;;
12814;SDS011;6472;52.328;13.070;2024-02-15T13:30:47;4.60;;;2.90;;
12814;SDS011;6472;52.328;13.070;2024-02-15T13:33:16;3.77;;;3.00;;
12814;SDS011;6472;52.328;13.070;2024-02-15T13:35:44;3.47;;;2.90;;
12814;SDS011;6472;52.328;13.070;2024-02-15T13:38:12;3.67;;;2.87;;
12814;SDS011;6472;52.328;13.070;2024-02-15T13:40:50;4.43;;;3.43;;
12814;SDS011;6472;52.328;13.070;2024-02-15T13:43:21;5.50;;;3.10;;
12814;SDS011;6472;52.328;13.070;2024-02-15T13:45:50;3.40;;;2.53;;
12814;SDS011;6472;52.328;13.070;2024-02-15T13:48:19;3.33;;;2.90;;
12814;SDS011;6472;52.328;13.070;2024-02-15T13:50:51;4.37;;;2.80;;
12814;SDS011;6472;52.328;13.070;2024-02-15T13:53:20;3.80;;;2.90;;
12814;SDS011;6472;52.328;13.070;2024-02-15T13:55:53;4.10;;;3.27;;
12814;SDS011;6472;52.328;13.070;2024-02-15T13:58:21;5.27;;;3.53;;
12814;SDS011;6472;52.328;13.070;2024-02-15T14:00:55;4.87;;;3.23;;
12814;SDS011;6472;52.328;13.070;2024-02-15T14:03:24;5.20;;;3.13;;
12814;SDS011;6472;52.328;13.070;2024-02-15T14:05:52;3.60;;;2.93;;
12814;SDS011;6472;52.328;13.070;2024-02-15T14:08:20;4.90;;;3.33;;
12814;SDS011;6472;52.328;13.070;2024-02-15T14:10:49;5.07;;;3.50;;
12814;SDS011;6472;52.328;13.070;2024-02-15T14:13:18;5.47;;;3.07;;
12814;SDS011;6472;52.328;13.070;2024-02-15T14:15:49;5.03;;;3.30;;
12814;SDS011;6472;52.328;13.070;2024-02-15T14:18:17;6.37;;;3.47;;
12814;SDS011;6472;52.328;13.070;2024-02-15T14:20:46;6.23;;;3.23;;
12814;SDS011;6472;52.328;13.070;2024-02-15T14:23:16;4.77;;;3.20;;
12814;SDS011;6472;52.328;13.070;2024-02-15T14:25:44;4.10;;;3.00;;
12814;SDS011;6472;52.328;13.070;2024-02-15T14:28:12;4.83;;;3.20;;
12814;SDS011;6472;52.328;13.070;2024-02-15T14:30:43;8.00;;;3.23;;
12814;SDS011;6472;52.328;13.070;2024-02-15T14:33:29;4.50;;;3.30;;
12814;SDS011;6472;52.328;13.070;2024-02-15T14:36:01;7.73;;;3.40;;
12814;SDS011;6472;52.328;13.070;2024-02-15T14:38:31;3.90;;;2.63;;
12814;SDS011;6472;52.328;13.070;2024-02-15T14:41:01;4.17;;;2.67;;
12814;SDS011;6472;52.328;13.070;2024-02-15T14:43:34;3.00;;;2.80;;
12814;SDS011;6472;52.328;13.070;2024-02-15T14:46:03;3.33;;;3.03;;
12814;SDS011;6472;52.328;13.070;2024-02-15T14:48:34;3.73;;;2.70;;
12814;SDS011;6472;52.328;13.070;2024-02-15T14:51:03;4.77;;;2.47;;
12814;SDS011;6472;52.328;13.070;2024-02-15T14:53:31;3.73;;;2.50;;
12814;SDS011;6472;52.328;13.070;2024-02-15T14:55:59;4.13;;;2.87;;
12814;SDS011;6472;52.328;13.070;2024-02-15T14:58:31;2.83;;;2.20;;
12814;SDS011;6472;52.328;13.070;2024-02-15T15:00:59;3.73;;;2.90;;
12814;SDS011;6472;52.328;13.070;2024-02-15T15:03:35;2.60;;;2.33;;
12814;SDS011;6472;52.328;13.070;2024-02-15T15:06:05;3.90;;;2.40;;
12814;SDS011;6472;52.328;13.070;2024-02-15T15:08:53;3.57;;;2.80;;
12814;SDS011;6472;52.328;13.070;2024-02-15T15:11:42;3.37;;;2.63;;